City of Grants Pass

Grants Pass AirportĀ 

ICAO K3S8 not found

Current Weather Conditions Medford Airport:
MEDFORD, OR
Metar
KMFR 232153Z 33006KT 10SM CLR 36/06 A2993 RMK AO2 SLP122 T03610056

21:53 UTC

Wind: 330° 6kt

Visibility: 10 SM

Sky:

Temp: 36 deg C / 96.8 deg F

Dewpoint: 6 deg C / 42.8 deg F

Pressure: 29.93 inHg

TAF
KMFR 231738Z 2318/2418 31004KT P6SM SKC